sensor_id;sensor_type;location;lat;lon;timestamp;P1;durP1;ratioP1;P2;durP2;ratioP2
45033;SDS011;30771;47.988;-4.186;2023-07-20T04:29:28;13.15;;;8.07;;
45033;SDS011;30771;47.988;-4.186;2023-07-20T04:31:54;16.17;;;8.57;;
45033;SDS011;30771;47.988;-4.186;2023-07-20T04:34:19;16.63;;;8.43;;
45033;SDS011;30771;47.988;-4.186;2023-07-20T04:36:44;13.70;;;7.38;;
45033;SDS011;30771;47.988;-4.186;2023-07-20T04:39:10;14.52;;;8.93;;
45033;SDS011;30771;47.988;-4.186;2023-07-20T04:41:35;20.13;;;9.43;;
45033;SDS011;30771;47.988;-4.186;2023-07-20T04:44:01;16.70;;;11.02;;
45033;SDS011;30771;47.988;-4.186;2023-07-20T04:46:26;19.77;;;10.02;;
45033;SDS011;30771;47.988;-4.186;2023-07-20T04:48:52;13.73;;;8.32;;
45033;SDS011;30771;47.988;-4.186;2023-07-20T04:51:17;16.75;;;9.82;;
45033;SDS011;30771;47.988;-4.186;2023-07-20T04:53:42;15.73;;;9.57;;
45033;SDS011;30771;47.988;-4.186;2023-07-20T04:56:08;14.27;;;9.57;;
45033;SDS011;30771;47.988;-4.186;2023-07-20T04:58:33;24.02;;;12.48;;
45033;SDS011;30771;47.988;-4.186;2023-07-20T05:00:59;20.45;;;11.10;;
45033;SDS011;30771;47.988;-4.186;2023-07-20T05:03:24;20.23;;;11.68;;
45033;SDS011;30771;47.988;-4.186;2023-07-20T05:05:49;20.75;;;11.13;;
45033;SDS011;30771;47.988;-4.186;2023-07-20T05:08:14;25.33;;;12.98;;
45033;SDS011;30771;47.988;-4.186;2023-07-20T05:10:40;18.67;;;11.60;;
45033;SDS011;30771;47.988;-4.186;2023-07-20T05:13:05;24.25;;;12.15;;
45033;SDS011;30771;47.988;-4.186;2023-07-20T05:15:32;22.17;;;10.82;;
45033;SDS011;30771;47.988;-4.186;2023-07-20T05:17:58;21.98;;;11.60;;
45033;SDS011;30771;47.988;-4.186;2023-07-20T05:20:23;21.55;;;12.00;;
45033;SDS011;30771;47.988;-4.186;2023-07-20T05:22:48;19.33;;;11.88;;
45033;SDS011;30771;47.988;-4.186;2023-07-20T05:25:14;20.20;;;11.93;;
45033;SDS011;30771;47.988;-4.186;2023-07-20T05:27:39;17.83;;;11.65;;
45033;SDS011;30771;47.988;-4.186;2023-07-20T05:30:05;18.48;;;11.90;;
45033;SDS011;30771;47.988;-4.186;2023-07-20T05:32:31;18.08;;;12.18;;
45033;SDS011;30771;47.988;-4.186;2023-07-20T05:34:56;22.17;;;12.85;;
45033;SDS011;30771;47.988;-4.186;2023-07-20T05:37:21;15.32;;;11.65;;
45033;SDS011;30771;47.988;-4.186;2023-07-20T05:39:47;22.13;;;12.75;;
45033;SDS011;30771;47.988;-4.186;2023-07-20T05:42:12;16.23;;;11.18;;
45033;SDS011;30771;47.988;-4.186;2023-07-20T05:44:37;14.23;;;10.60;;
45033;SDS011;30771;47.988;-4.186;2023-07-20T05:47:03;22.92;;;11.70;;
45033;SDS011;30771;47.988;-4.186;2023-07-20T05:49:29;17.13;;;10.48;;
45033;SDS011;30771;47.988;-4.186;2023-07-20T05:51:54;17.75;;;10.02;;
45033;SDS011;30771;47.988;-4.186;2023-07-20T05:54:21;14.73;;;9.77;;
45033;SDS011;30771;47.988;-4.186;2023-07-20T05:56:46;14.57;;;10.27;;
45033;SDS011;30771;47.988;-4.186;2023-07-20T05:59:11;16.95;;;10.98;;
45033;SDS011;30771;47.988;-4.186;2023-07-20T06:01:37;17.15;;;10.77;;
45033;SDS011;30771;47.988;-4.186;2023-07-20T06:04:02;19.73;;;11.85;;
45033;SDS011;30771;47.988;-4.186;2023-07-20T06:06:27;16.75;;;11.00;;
45033;SDS011;30771;47.988;-4.186;2023-07-20T06:08:52;18.75;;;10.18;;
45033;SDS011;30771;47.988;-4.186;2023-07-20T06:11:18;16.35;;;10.40;;
45033;SDS011;30771;47.988;-4.186;2023-07-20T06:13:43;16.33;;;10.10;;
45033;SDS011;30771;47.988;-4.186;2023-07-20T06:16:08;16.10;;;10.90;;
45033;SDS011;30771;47.988;-4.186;2023-07-20T06:18:33;15.80;;;10.88;;
45033;SDS011;30771;47.988;-4.186;2023-07-20T06:20:59;15.82;;;12.32;;
45033;SDS011;30771;47.988;-4.186;2023-07-20T06:23:24;17.58;;;12.18;;
45033;SDS011;30771;47.988;-4.186;2023-07-20T06:25:49;18.65;;;12.30;;
45033;SDS011;30771;47.988;-4.186;2023-07-20T06:28:14;15.40;;;12.02;;
45033;SDS011;30771;47.988;-4.186;2023-07-20T06:30:40;17.00;;;12.70;;
45033;SDS011;30771;47.988;-4.186;2023-07-20T06:33:05;17.88;;;11.75;;
45033;SDS011;30771;47.988;-4.186;2023-07-20T06:35:31;15.55;;;10.70;;
45033;SDS011;30771;47.988;-4.186;2023-07-20T06:37:56;17.58;;;10.88;;
45033;SDS011;30771;47.988;-4.186;2023-07-20T06:40:21;12.75;;;9.65;;
45033;SDS011;30771;47.988;-4.186;2023-07-20T06:42:47;13.15;;;10.35;;
45033;SDS011;30771;47.988;-4.186;2023-07-20T06:45:12;15.80;;;10.52;;
45033;SDS011;30771;47.988;-4.186;2023-07-20T06:47:38;12.30;;;9.50;;
45033;SDS011;30771;47.988;-4.186;2023-07-20T06:50:03;10.60;;;9.50;;
45033;SDS011;30771;47.988;-4.186;2023-07-20T06:52:29;9.43;;;7.63;;
45033;SDS011;30771;47.988;-4.186;2023-07-20T06:54:54;7.78;;;6.97;;
45033;SDS011;30771;47.988;-4.186;2023-07-20T06:57:20;9.70;;;7.05;;
45033;SDS011;30771;47.988;-4.186;2023-07-20T06:59:45;9.13;;;7.35;;
45033;SDS011;30771;47.988;-4.186;2023-07-20T07:02:10;9.70;;;8.70;;
45033;SDS011;30771;47.988;-4.186;2023-07-20T07:04:35;10.25;;;7.97;;
45033;SDS011;30771;47.988;-4.186;2023-07-20T07:07:01;7.72;;;5.97;;
45033;SDS011;30771;47.988;-4.186;2023-07-20T07:09:26;10.00;;;8.65;;
45033;SDS011;30771;47.988;-4.186;2023-07-20T07:11:51;14.38;;;10.50;;
45033;SDS011;30771;47.988;-4.186;2023-07-20T07:14:17;10.48;;;9.40;;
45033;SDS011;30771;47.988;-4.186;2023-07-20T07:16:42;9.50;;;8.60;;
45033;SDS011;30771;47.988;-4.186;2023-07-20T07:19:07;10.52;;;8.73;;
45033;SDS011;30771;47.988;-4.186;2023-07-20T07:21:32;12.73;;;8.40;;
45033;SDS011;30771;47.988;-4.186;2023-07-20T07:23:58;12.88;;;9.25;;
45033;SDS011;30771;47.988;-4.186;2023-07-20T07:26:23;15.70;;;10.05;;
45033;SDS011;30771;47.988;-4.186;2023-07-20T07:28:48;9.88;;;8.80;;
45033;SDS011;30771;47.988;-4.186;2023-07-20T07:31:14;9.18;;;7.82;;
45033;SDS011;30771;47.988;-4.186;2023-07-20T07:33:39;10.95;;;9.27;;
45033;SDS011;30771;47.988;-4.186;2023-07-20T07:36:04;9.82;;;7.80;;
45033;SDS011;30771;47.988;-4.186;2023-07-20T07:38:30;12.30;;;9.38;;
45033;SDS011;30771;47.988;-4.186;2023-07-20T07:40:55;10.57;;;9.57;;
45033;SDS011;30771;47.988;-4.186;2023-07-20T07:43:20;13.52;;;10.18;;
45033;SDS011;30771;47.988;-4.186;2023-07-20T07:45:45;10.05;;;7.82;;
45033;SDS011;30771;47.988;-4.186;2023-07-20T07:48:11;8.20;;;7.25;;
45033;SDS011;30771;47.988;-4.186;2023-07-20T07:50:36;6.95;;;6.22;;
45033;SDS011;30771;47.988;-4.186;2023-07-20T07:53:01;8.50;;;6.00;;
45033;SDS011;30771;47.988;-4.186;2023-07-20T07:55:27;7.25;;;5.80;;
45033;SDS011;30771;47.988;-4.186;2023-07-20T07:57:52;7.30;;;5.65;;
45033;SDS011;30771;47.988;-4.186;2023-07-20T08:00:18;8.77;;;5.82;;
45033;SDS011;30771;47.988;-4.186;2023-07-20T08:02:43;6.85;;;4.32;;
45033;SDS011;30771;47.988;-4.186;2023-07-20T08:05:09;9.30;;;4.90;;
45033;SDS011;30771;47.988;-4.186;2023-07-20T08:07:35;3.65;;;2.92;;
45033;SDS011;30771;47.988;-4.186;2023-07-20T08:10:01;4.20;;;3.42;;
45033;SDS011;30771;47.988;-4.186;2023-07-20T08:12:26;7.82;;;4.03;;
45033;SDS011;30771;47.988;-4.186;2023-07-20T08:14:51;5.47;;;2.88;;
45033;SDS011;30771;47.988;-4.186;2023-07-20T08:17:17;7.85;;;3.85;;
45033;SDS011;30771;47.988;-4.186;2023-07-20T08:19:42;4.43;;;2.58;;
45033;SDS011;30771;47.988;-4.186;2023-07-20T08:22:07;5.63;;;2.50;;
45033;SDS011;30771;47.988;-4.186;2023-07-20T08:24:33;2.58;;;1.95;;
45033;SDS011;30771;47.988;-4.186;2023-07-20T08:26:58;6.47;;;2.50;;
45033;SDS011;30771;47.988;-4.186;2023-07-20T08:29:23;3.72;;;2.00;;
45033;SDS011;30771;47.988;-4.186;2023-07-20T08:31:49;3.53;;;2.47;;
45033;SDS011;30771;47.988;-4.186;2023-07-20T08:34:14;4.32;;;2.50;;
45033;SDS011;30771;47.988;-4.186;2023-07-20T08:36:39;4.20;;;2.67;;
45033;SDS011;30771;47.988;-4.186;2023-07-20T08:39:04;4.22;;;2.65;;
45033;SDS011;30771;47.988;-4.186;2023-07-20T08:41:30;5.15;;;2.85;;
45033;SDS011;30771;47.988;-4.186;2023-07-20T08:43:55;3.90;;;2.22;;
45033;SDS011;30771;47.988;-4.186;2023-07-20T08:46:22;3.53;;;1.80;;
45033;SDS011;30771;47.988;-4.186;2023-07-20T08:48:48;3.53;;;2.13;;
45033;SDS011;30771;47.988;-4.186;2023-07-20T08:51:14;4.32;;;1.83;;
45033;SDS011;30771;47.988;-4.186;2023-07-20T08:53:40;5.35;;;2.30;;
45033;SDS011;30771;47.988;-4.186;2023-07-20T08:56:06;4.40;;;2.85;;
45033;SDS011;30771;47.988;-4.186;2023-07-20T08:58:32;4.75;;;2.83;;
45033;SDS011;30771;47.988;-4.186;2023-07-20T09:00:59;3.38;;;2.38;;
45033;SDS011;30771;47.988;-4.186;2023-07-20T09:03:25;4.05;;;2.13;;
45033;SDS011;30771;47.988;-4.186;2023-07-20T09:05:50;6.10;;;2.47;;
45033;SDS011;30771;47.988;-4.186;2023-07-20T09:08:15;3.15;;;1.95;;
45033;SDS011;30771;47.988;-4.186;2023-07-20T09:10:41;2.63;;;1.98;;
45033;SDS011;30771;47.988;-4.186;2023-07-20T09:13:06;3.15;;;1.77;;
45033;SDS011;30771;47.988;-4.186;2023-07-20T09:15:31;4.20;;;1.90;;
45033;SDS011;30771;47.988;-4.186;2023-07-20T09:18:00;2.85;;;1.50;;
45033;SDS011;30771;47.988;-4.186;2023-07-20T09:20:26;2.58;;;1.42;;
45033;SDS011;30771;47.988;-4.186;2023-07-20T09:22:52;2.97;;;1.48;;
45033;SDS011;30771;47.988;-4.186;2023-07-20T09:25:18;2.65;;;1.63;;
45033;SDS011;30771;47.988;-4.186;2023-07-20T09:27:44;3.22;;;1.40;;
45033;SDS011;30771;47.988;-4.186;2023-07-20T09:30:11;2.08;;;1.40;;
45033;SDS011;30771;47.988;-4.186;2023-07-20T09:32:40;2.72;;;1.48;;
45033;SDS011;30771;47.988;-4.186;2023-07-20T09:35:07;2.30;;;1.58;;
45033;SDS011;30771;47.988;-4.186;2023-07-20T09:37:37;2.60;;;1.60;;
45033;SDS011;30771;47.988;-4.186;2023-07-20T09:40:03;2.80;;;1.70;;
45033;SDS011;30771;47.988;-4.186;2023-07-20T09:42:32;2.50;;;1.60;;
45033;SDS011;30771;47.988;-4.186;2023-07-20T09:44:57;1.70;;;1.23;;
45033;SDS011;30771;47.988;-4.186;2023-07-20T09:47:23;2.08;;;1.02;;
45033;SDS011;30771;47.988;-4.186;2023-07-20T09:49:48;2.03;;;1.05;;
45033;SDS011;30771;47.988;-4.186;2023-07-20T09:52:14;3.92;;;1.58;;
45033;SDS011;30771;47.988;-4.186;2023-07-20T09:54:40;1.92;;;1.50;;
45033;SDS011;30771;47.988;-4.186;2023-07-20T09:57:11;1.60;;;1.27;;
45033;SDS011;30771;47.988;-4.186;2023-07-20T09:59:36;2.72;;;1.40;;
45033;SDS011;30771;47.988;-4.186;2023-07-20T10:02:02;3.45;;;1.40;;
45033;SDS011;30771;47.988;-4.186;2023-07-20T10:04:34;2.72;;;1.23;;
45033;SDS011;30771;47.988;-4.186;2023-07-20T10:07:02;3.33;;;1.50;;
45033;SDS011;30771;47.988;-4.186;2023-07-20T10:09:33;2.08;;;1.17;;
45033;SDS011;30771;47.988;-4.186;2023-07-20T10:12:02;3.17;;;1.20;;
45033;SDS011;30771;47.988;-4.186;2023-07-20T10:14:28;2.63;;;1.20;;
45033;SDS011;30771;47.988;-4.186;2023-07-20T10:16:57;2.50;;;1.40;;
45033;SDS011;30771;47.988;-4.186;2023-07-20T10:21:58;2.97;;;1.30;;
45033;SDS011;30771;47.988;-4.186;2023-07-20T10:24:47;1.65;;;1.00;;
45033;SDS011;30771;47.988;-4.186;2023-07-20T10:27:13;1.63;;;1.08;;
45033;SDS011;30771;47.988;-4.186;2023-07-20T10:29:39;1.75;;;1.23;;
45033;SDS011;30771;47.988;-4.186;2023-07-20T10:32:06;2.10;;;1.30;;
45033;SDS011;30771;47.988;-4.186;2023-07-20T10:34:33;1.80;;;1.30;;
45033;SDS011;30771;47.988;-4.186;2023-07-20T10:36:58;2.22;;;1.38;;
45033;SDS011;30771;47.988;-4.186;2023-07-20T10:41:50;2.63;;;1.30;;
45033;SDS011;30771;47.988;-4.186;2023-07-20T10:44:24;1.40;;;1.00;;
45033;SDS011;30771;47.988;-4.186;2023-07-20T10:46:49;2.97;;;1.10;;
45033;SDS011;30771;47.988;-4.186;2023-07-20T10:49:14;3.15;;;1.30;;
45033;SDS011;30771;47.988;-4.186;2023-07-20T10:51:44;2.28;;;1.52;;
45033;SDS011;30771;47.988;-4.186;2023-07-20T10:56:41;2.03;;;1.15;;
45033;SDS011;30771;47.988;-4.186;2023-07-20T11:01:48;2.03;;;1.10;;
45033;SDS011;30771;47.988;-4.186;2023-07-20T11:04:14;2.15;;;1.10;;
45033;SDS011;30771;47.988;-4.186;2023-07-20T11:06:42;4.43;;;1.30;;
45033;SDS011;30771;47.988;-4.186;2023-07-20T11:11:37;2.08;;;1.17;;
45033;SDS011;30771;47.988;-4.186;2023-07-20T11:16:45;1.27;;;1.02;;
45033;SDS011;30771;47.988;-4.186;2023-07-20T11:19:18;1.95;;;1.10;;
45033;SDS011;30771;47.988;-4.186;2023-07-20T11:21:47;1.65;;;1.20;;
45033;SDS011;30771;47.988;-4.186;2023-07-20T11:24:15;3.10;;;1.00;;
45033;SDS011;30771;47.988;-4.186;2023-07-20T11:26:44;2.67;;;1.30;;
45033;SDS011;30771;47.988;-4.186;2023-07-20T11:29:11;2.67;;;1.25;;
45033;SDS011;30771;47.988;-4.186;2023-07-20T11:31:38;4.00;;;1.10;;
45033;SDS011;30771;47.988;-4.186;2023-07-20T11:34:04;4.65;;;1.20;;
45033;SDS011;30771;47.988;-4.186;2023-07-20T11:36:30;2.22;;;1.10;;
45033;SDS011;30771;47.988;-4.186;2023-07-20T11:38:56;1.70;;;1.05;;
45033;SDS011;30771;47.988;-4.186;2023-07-20T11:41:22;2.20;;;1.13;;
45033;SDS011;30771;47.988;-4.186;2023-07-20T11:43:47;2.95;;;1.20;;
45033;SDS011;30771;47.988;-4.186;2023-07-20T11:46:13;2.60;;;1.23;;
45033;SDS011;30771;47.988;-4.186;2023-07-20T11:48:38;2.45;;;1.33;;
45033;SDS011;30771;47.988;-4.186;2023-07-20T11:51:04;2.25;;;1.00;;
45033;SDS011;30771;47.988;-4.186;2023-07-20T11:53:29;2.65;;;1.20;;
45033;SDS011;30771;47.988;-4.186;2023-07-20T11:55:54;2.45;;;1.00;;
45033;SDS011;30771;47.988;-4.186;2023-07-20T11:58:20;1.10;;;0.88;;
45033;SDS011;30771;47.988;-4.186;2023-07-20T12:00:46;2.60;;;1.27;;
45033;SDS011;30771;47.988;-4.186;2023-07-20T12:03:12;5.50;;;1.52;;
45033;SDS011;30771;47.988;-4.186;2023-07-20T12:05:40;2.13;;;1.27;;
45033;SDS011;30771;47.988;-4.186;2023-07-20T12:10:31;2.80;;;1.40;;
45033;SDS011;30771;47.988;-4.186;2023-07-20T12:13:03;2.17;;;1.50;;
45033;SDS011;30771;47.988;-4.186;2023-07-20T12:15:28;5.10;;;1.67;;
45033;SDS011;30771;47.988;-4.186;2023-07-20T12:17:54;2.25;;;1.30;;
45033;SDS011;30771;47.988;-4.186;2023-07-20T12:20:31;2.75;;;1.40;;
45033;SDS011;30771;47.988;-4.186;2023-07-20T12:23:01;3.10;;;1.80;;
45033;SDS011;30771;47.988;-4.186;2023-07-20T12:25:36;2.15;;;1.42;;
45033;SDS011;30771;47.988;-4.186;2023-07-20T12:28:09;3.58;;;1.83;;
45033;SDS011;30771;47.988;-4.186;2023-07-20T12:30:39;5.78;;;1.77;;
45033;SDS011;30771;47.988;-4.186;2023-07-20T12:33:05;4.22;;;1.83;;
45033;SDS011;30771;47.988;-4.186;2023-07-20T12:35:31;3.78;;;1.45;;
45033;SDS011;30771;47.988;-4.186;2023-07-20T12:37:57;2.75;;;1.90;;
45033;SDS011;30771;47.988;-4.186;2023-07-20T12:40:22;4.50;;;1.77;;
45033;SDS011;30771;47.988;-4.186;2023-07-20T12:42:48;2.53;;;1.95;;
45033;SDS011;30771;47.988;-4.186;2023-07-20T12:45:13;6.18;;;1.40;;
45033;SDS011;30771;47.988;-4.186;2023-07-20T12:47:39;2.20;;;1.73;;
45033;SDS011;30771;47.988;-4.186;2023-07-20T12:50:05;4.50;;;1.85;;
45033;SDS011;30771;47.988;-4.186;2023-07-20T12:52:30;2.75;;;1.40;;
45033;SDS011;30771;47.988;-4.186;2023-07-20T12:54:55;4.90;;;1.60;;
45033;SDS011;30771;47.988;-4.186;2023-07-20T12:57:21;3.22;;;1.50;;
45033;SDS011;30771;47.988;-4.186;2023-07-20T12:59:46;3.92;;;1.88;;
45033;SDS011;30771;47.988;-4.186;2023-07-20T13:02:11;2.95;;;1.58;;
45033;SDS011;30771;47.988;-4.186;2023-07-20T13:04:37;5.10;;;1.90;;
45033;SDS011;30771;47.988;-4.186;2023-07-20T13:07:02;3.05;;;1.90;;
45033;SDS011;30771;47.988;-4.186;2023-07-20T13:09:27;3.95;;;1.77;;
45033;SDS011;30771;47.988;-4.186;2023-07-20T13:11:53;6.95;;;2.42;;
45033;SDS011;30771;47.988;-4.186;2023-07-20T13:14:18;5.35;;;1.98;;
45033;SDS011;30771;47.988;-4.186;2023-07-20T13:16:43;3.33;;;1.90;;
45033;SDS011;30771;47.988;-4.186;2023-07-20T13:19:08;2.92;;;2.00;;
45033;SDS011;30771;47.988;-4.186;2023-07-20T13:21:34;4.15;;;2.22;;
45033;SDS011;30771;47.988;-4.186;2023-07-20T13:23:59;4.10;;;2.50;;
45033;SDS011;30771;47.988;-4.186;2023-07-20T13:26:24;11.70;;;2.53;;
45033;SDS011;30771;47.988;-4.186;2023-07-20T13:28:49;5.65;;;2.75;;
45033;SDS011;30771;47.988;-4.186;2023-07-20T13:31:15;5.00;;;2.55;;
45033;SDS011;30771;47.988;-4.186;2023-07-20T13:33:40;2.75;;;2.20;;
45033;SDS011;30771;47.988;-4.186;2023-07-20T13:36:05;6.15;;;2.30;;
45033;SDS011;30771;47.988;-4.186;2023-07-20T13:38:31;5.82;;;2.42;;
45033;SDS011;30771;47.988;-4.186;2023-07-20T13:40:56;7.35;;;2.60;;
45033;SDS011;30771;47.988;-4.186;2023-07-20T13:43:21;4.07;;;2.58;;
45033;SDS011;30771;47.988;-4.186;2023-07-20T13:45:47;6.15;;;2.60;;
45033;SDS011;30771;47.988;-4.186;2023-07-20T13:48:12;5.97;;;2.75;;
45033;SDS011;30771;47.988;-4.186;2023-07-20T13:50:37;4.20;;;2.67;;
45033;SDS011;30771;47.988;-4.186;2023-07-20T13:53:03;5.70;;;2.80;;
45033;SDS011;30771;47.988;-4.186;2023-07-20T13:55:28;4.68;;;2.90;;
45033;SDS011;30771;47.988;-4.186;2023-07-20T13:57:53;4.97;;;2.50;;
45033;SDS011;30771;47.988;-4.186;2023-07-20T14:00:18;6.82;;;2.95;;
45033;SDS011;30771;47.988;-4.186;2023-07-20T14:02:44;10.45;;;2.50;;
45033;SDS011;30771;47.988;-4.186;2023-07-20T14:05:09;7.50;;;2.70;;
45033;SDS011;30771;47.988;-4.186;2023-07-20T14:07:34;3.92;;;2.40;;
45033;SDS011;30771;47.988;-4.186;2023-07-20T14:10:00;4.63;;;2.70;;
45033;SDS011;30771;47.988;-4.186;2023-07-20T14:12:25;3.92;;;2.50;;
45033;SDS011;30771;47.988;-4.186;2023-07-20T14:14:50;5.05;;;2.42;;
45033;SDS011;30771;47.988;-4.186;2023-07-20T14:17:15;6.43;;;3.08;;
45033;SDS011;30771;47.988;-4.186;2023-07-20T14:19:41;10.18;;;2.47;;
45033;SDS011;30771;47.988;-4.186;2023-07-20T14:22:06;6.38;;;2.40;;
45033;SDS011;30771;47.988;-4.186;2023-07-20T14:24:31;6.60;;;2.80;;
45033;SDS011;30771;47.988;-4.186;2023-07-20T14:26:56;7.57;;;2.30;;
45033;SDS011;30771;47.988;-4.186;2023-07-20T14:29:22;6.13;;;2.50;;
45033;SDS011;30771;47.988;-4.186;2023-07-20T14:31:47;5.13;;;2.45;;
45033;SDS011;30771;47.988;-4.186;2023-07-20T14:34:12;5.75;;;2.20;;
45033;SDS011;30771;47.988;-4.186;2023-07-20T14:36:37;4.65;;;2.10;;
45033;SDS011;30771;47.988;-4.186;2023-07-20T14:39:03;5.43;;;2.58;;
45033;SDS011;30771;47.988;-4.186;2023-07-20T14:41:28;4.35;;;2.28;;
45033;SDS011;30771;47.988;-4.186;2023-07-20T14:43:53;4.55;;;2.50;;
45033;SDS011;30771;47.988;-4.186;2023-07-20T14:46:19;4.72;;;2.28;;
45033;SDS011;30771;47.988;-4.186;2023-07-20T14:48:44;4.22;;;2.42;;
45033;SDS011;30771;47.988;-4.186;2023-07-20T14:51:09;5.57;;;2.67;;
45033;SDS011;30771;47.988;-4.186;2023-07-20T14:53:34;3.33;;;2.33;;
45033;SDS011;30771;47.988;-4.186;2023-07-20T14:56:00;5.18;;;2.45;;
45033;SDS011;30771;47.988;-4.186;2023-07-20T14:58:26;8.10;;;2.40;;
45033;SDS011;30771;47.988;-4.186;2023-07-20T15:00:52;5.25;;;2.38;;
45033;SDS011;30771;47.988;-4.186;2023-07-20T15:03:17;5.20;;;2.40;;
45033;SDS011;30771;47.988;-4.186;2023-07-20T15:05:42;5.55;;;2.42;;
45033;SDS011;30771;47.988;-4.186;2023-07-20T15:08:07;7.15;;;2.78;;
45033;SDS011;30771;47.988;-4.186;2023-07-20T15:10:33;6.63;;;2.28;;
45033;SDS011;30771;47.988;-4.186;2023-07-20T15:12:59;4.47;;;2.50;;
45033;SDS011;30771;47.988;-4.186;2023-07-20T15:15:24;5.07;;;2.20;;
45033;SDS011;30771;47.988;-4.186;2023-07-20T15:17:49;4.82;;;2.47;;
45033;SDS011;30771;47.988;-4.186;2023-07-20T15:20:15;5.85;;;2.45;;
45033;SDS011;30771;47.988;-4.186;2023-07-20T15:22:40;5.45;;;2.35;;
45033;SDS011;30771;47.988;-4.186;2023-07-20T15:25:06;6.88;;;2.50;;
45033;SDS011;30771;47.988;-4.186;2023-07-20T15:27:33;4.82;;;2.15;;
45033;SDS011;30771;47.988;-4.186;2023-07-20T15:29:58;3.30;;;2.00;;
45033;SDS011;30771;47.988;-4.186;2023-07-20T15:32:24;5.65;;;2.25;;
45033;SDS011;30771;47.988;-4.186;2023-07-20T15:34:49;3.60;;;2.33;;
45033;SDS011;30771;47.988;-4.186;2023-07-20T15:37:14;4.65;;;2.13;;
45033;SDS011;30771;47.988;-4.186;2023-07-20T15:39:39;5.03;;;2.38;;
45033;SDS011;30771;47.988;-4.186;2023-07-20T15:42:05;4.10;;;2.00;;
45033;SDS011;30771;47.988;-4.186;2023-07-20T15:44:31;3.85;;;1.85;;
45033;SDS011;30771;47.988;-4.186;2023-07-20T15:46:57;3.83;;;1.90;;
45033;SDS011;30771;47.988;-4.186;2023-07-20T15:49:22;6.68;;;2.20;;
45033;SDS011;30771;47.988;-4.186;2023-07-20T15:51:48;3.20;;;2.00;;
45033;SDS011;30771;47.988;-4.186;2023-07-20T15:54:14;5.38;;;2.00;;
45033;SDS011;30771;47.988;-4.186;2023-07-20T15:56:40;6.07;;;2.10;;
45033;SDS011;30771;47.988;-4.186;2023-07-20T15:59:07;5.15;;;2.10;;
45033;SDS011;30771;47.988;-4.186;2023-07-20T16:01:34;4.78;;;2.00;;
45033;SDS011;30771;47.988;-4.186;2023-07-20T16:04:00;3.58;;;2.13;;
45033;SDS011;30771;47.988;-4.186;2023-07-20T16:06:26;4.65;;;1.92;;
45033;SDS011;30771;47.988;-4.186;2023-07-20T16:08:51;4.20;;;1.90;;
45033;SDS011;30771;47.988;-4.186;2023-07-20T16:11:17;4.82;;;2.00;;
45033;SDS011;30771;47.988;-4.186;2023-07-20T16:13:43;3.47;;;1.83;;
45033;SDS011;30771;47.988;-4.186;2023-07-20T16:16:08;3.90;;;1.60;;
45033;SDS011;30771;47.988;-4.186;2023-07-20T16:18:33;3.10;;;1.58;;
45033;SDS011;30771;47.988;-4.186;2023-07-20T16:20:59;3.33;;;1.95;;
45033;SDS011;30771;47.988;-4.186;2023-07-20T16:23:24;3.60;;;1.50;;
45033;SDS011;30771;47.988;-4.186;2023-07-20T16:25:50;5.88;;;1.63;;
45033;SDS011;30771;47.988;-4.186;2023-07-20T16:28:15;4.07;;;1.83;;
45033;SDS011;30771;47.988;-4.186;2023-07-20T16:30:40;2.97;;;1.50;;
45033;SDS011;30771;47.988;-4.186;2023-07-20T16:33:06;2.40;;;1.52;;
45033;SDS011;30771;47.988;-4.186;2023-07-20T16:35:31;4.88;;;1.70;;
45033;SDS011;30771;47.988;-4.186;2023-07-20T16:38:01;3.25;;;1.83;;
45033;SDS011;30771;47.988;-4.186;2023-07-20T16:40:26;4.18;;;1.48;;
45033;SDS011;30771;47.988;-4.186;2023-07-20T16:42:52;3.63;;;1.58;;
45033;SDS011;30771;47.988;-4.186;2023-07-20T16:45:17;4.78;;;1.77;;
45033;SDS011;30771;47.988;-4.186;2023-07-20T16:47:42;4.00;;;1.77;;
45033;SDS011;30771;47.988;-4.186;2023-07-20T16:50:08;2.42;;;1.60;;
45033;SDS011;30771;47.988;-4.186;2023-07-20T16:52:33;2.78;;;1.63;;
45033;SDS011;30771;47.988;-4.186;2023-07-20T16:54:58;3.85;;;1.60;;
45033;SDS011;30771;47.988;-4.186;2023-07-20T16:57:24;4.18;;;2.10;;
45033;SDS011;30771;47.988;-4.186;2023-07-20T16:59:49;2.35;;;1.52;;
45033;SDS011;30771;47.988;-4.186;2023-07-20T17:02:14;5.30;;;1.70;;
45033;SDS011;30771;47.988;-4.186;2023-07-20T17:04:40;2.95;;;1.60;;
45033;SDS011;30771;47.988;-4.186;2023-07-20T17:07:05;4.20;;;1.92;;
45033;SDS011;30771;47.988;-4.186;2023-07-20T17:09:31;7.82;;;1.80;;
45033;SDS011;30771;47.988;-4.186;2023-07-20T17:11:57;2.83;;;1.80;;
45033;SDS011;30771;47.988;-4.186;2023-07-20T17:14:23;7.53;;;1.77;;
45033;SDS011;30771;47.988;-4.186;2023-07-20T17:16:48;3.67;;;1.75;;
45033;SDS011;30771;47.988;-4.186;2023-07-20T17:19:13;2.85;;;1.95;;
45033;SDS011;30771;47.988;-4.186;2023-07-20T17:21:39;4.05;;;1.90;;
45033;SDS011;30771;47.988;-4.186;2023-07-20T17:24:04;4.47;;;2.08;;
45033;SDS011;30771;47.988;-4.186;2023-07-20T17:26:30;7.50;;;2.50;;
45033;SDS011;30771;47.988;-4.186;2023-07-20T17:28:55;6.65;;;2.17;;
45033;SDS011;30771;47.988;-4.186;2023-07-20T17:31:21;3.60;;;2.05;;
45033;SDS011;30771;47.988;-4.186;2023-07-20T17:33:46;6.97;;;2.50;;
45033;SDS011;30771;47.988;-4.186;2023-07-20T17:36:11;4.72;;;2.33;;
45033;SDS011;30771;47.988;-4.186;2023-07-20T17:38:37;3.30;;;2.22;;
45033;SDS011;30771;47.988;-4.186;2023-07-20T17:41:02;5.07;;;2.45;;
45033;SDS011;30771;47.988;-4.186;2023-07-20T17:43:27;5.72;;;2.42;;
45033;SDS011;30771;47.988;-4.186;2023-07-20T17:45:53;5.20;;;2.65;;
45033;SDS011;30771;47.988;-4.186;2023-07-20T17:48:18;5.78;;;2.60;;
45033;SDS011;30771;47.988;-4.186;2023-07-20T17:50:44;4.20;;;2.67;;
45033;SDS011;30771;47.988;-4.186;2023-07-20T17:53:10;4.82;;;2.80;;
45033;SDS011;30771;47.988;-4.186;2023-07-20T17:55:35;5.50;;;2.92;;
45033;SDS011;30771;47.988;-4.186;2023-07-20T17:58:01;7.30;;;2.97;;
45033;SDS011;30771;47.988;-4.186;2023-07-20T18:00:26;3.58;;;2.67;;
45033;SDS011;30771;47.988;-4.186;2023-07-20T18:02:51;4.05;;;2.80;;
45033;SDS011;30771;47.988;-4.186;2023-07-20T18:05:17;6.07;;;2.88;;
45033;SDS011;30771;47.988;-4.186;2023-07-20T18:07:42;6.13;;;3.10;;
45033;SDS011;30771;47.988;-4.186;2023-07-20T18:10:07;5.93;;;3.10;;
45033;SDS011;30771;47.988;-4.186;2023-07-20T18:12:33;4.85;;;2.75;;
45033;SDS011;30771;47.988;-4.186;2023-07-20T18:14:58;5.90;;;2.83;;
45033;SDS011;30771;47.988;-4.186;2023-07-20T18:17:23;3.55;;;2.63;;
45033;SDS011;30771;47.988;-4.186;2023-07-20T18:19:49;6.03;;;2.88;;
45033;SDS011;30771;47.988;-4.186;2023-07-20T18:22:14;6.15;;;3.05;;
45033;SDS011;30771;47.988;-4.186;2023-07-20T18:24:42;4.43;;;3.17;;
45033;SDS011;30771;47.988;-4.186;2023-07-20T18:27:07;5.63;;;3.05;;
45033;SDS011;30771;47.988;-4.186;2023-07-20T18:29:33;4.57;;;3.05;;
45033;SDS011;30771;47.988;-4.186;2023-07-20T18:31:59;6.05;;;3.20;;
45033;SDS011;30771;47.988;-4.186;2023-07-20T18:34:25;6.20;;;3.20;;
45033;SDS011;30771;47.988;-4.186;2023-07-20T18:36:50;5.47;;;3.63;;
45033;SDS011;30771;47.988;-4.186;2023-07-20T18:39:15;5.95;;;3.85;;
45033;SDS011;30771;47.988;-4.186;2023-07-20T18:41:40;7.53;;;4.00;;
45033;SDS011;30771;47.988;-4.186;2023-07-20T18:44:06;6.40;;;4.05;;
45033;SDS011;30771;47.988;-4.186;2023-07-20T18:46:31;9.35;;;3.67;;
45033;SDS011;30771;47.988;-4.186;2023-07-20T18:48:56;11.38;;;4.13;;
45033;SDS011;30771;47.988;-4.186;2023-07-20T18:51:22;6.50;;;3.78;;
45033;SDS011;30771;47.988;-4.186;2023-07-20T18:53:47;6.65;;;3.72;;
45033;SDS011;30771;47.988;-4.186;2023-07-20T18:56:12;6.90;;;3.65;;
45033;SDS011;30771;47.988;-4.186;2023-07-20T18:58:38;7.05;;;3.40;;
45033;SDS011;30771;47.988;-4.186;2023-07-20T19:01:03;7.22;;;3.67;;
45033;SDS011;30771;47.988;-4.186;2023-07-20T19:03:28;7.30;;;3.67;;
45033;SDS011;30771;47.988;-4.186;2023-07-20T19:05:54;6.38;;;3.17;;
45033;SDS011;30771;47.988;-4.186;2023-07-20T19:08:19;6.88;;;3.38;;